createdAt,value
2022-12-31T00:00:04.935Z,56.60
2022-12-31T00:02:31.736Z,56.60
2022-12-31T00:04:58.558Z,56.60
2022-12-31T00:07:25.291Z,57.20
2022-12-31T00:09:51.962Z,56.60
2022-12-31T00:12:18.732Z,56.60
2022-12-31T00:14:45.470Z,56.60
2022-12-31T00:17:12.222Z,56.50
2022-12-31T00:19:45.322Z,56.50
2022-12-31T00:22:12.002Z,56.60
2022-12-31T00:24:38.708Z,56.50
2022-12-31T00:27:05.393Z,56.60
2022-12-31T00:29:38.108Z,56.60
2022-12-31T00:32:04.988Z,56.60
2022-12-31T00:34:31.617Z,56.50
2022-12-31T00:36:58.299Z,56.50
2022-12-31T00:39:24.972Z,56.60
2022-12-31T00:41:51.634Z,56.50
2022-12-31T00:44:18.357Z,56.60
2022-12-31T00:49:10.946Z,56.60
2022-12-31T00:51:37.678Z,56.50
2022-12-31T00:54:04.340Z,56.50
2022-12-31T00:56:37.295Z,56.50
2022-12-31T00:59:04.066Z,56.50
2022-12-31T01:01:31.693Z,56.60
2022-12-31T01:04:05.751Z,56.50
2022-12-31T01:06:32.490Z,56.50
2022-12-31T01:08:59.175Z,56.50
2022-12-31T01:11:29.338Z,56.50
2022-12-31T01:13:57.643Z,56.50
2022-12-31T01:16:28.359Z,56.50
2022-12-31T01:18:55.015Z,56.30
2022-12-31T01:21:21.914Z,56.30
2022-12-31T01:23:48.592Z,56.30
2022-12-31T01:26:15.697Z,56.40
2022-12-31T01:28:42.405Z,56.30
2022-12-31T01:31:12.945Z,56.30
2022-12-31T01:33:45.816Z,56.30
2022-12-31T01:36:38.952Z,56.30
2022-12-31T01:39:06.139Z,56.30
2022-12-31T01:41:33.809Z,56.40
2022-12-31T01:44:20.450Z,56.30
2022-12-31T01:46:47.846Z,56.30
2022-12-31T01:49:19.942Z,56.30
2022-12-31T01:51:47.740Z,56.50
2022-12-31T01:54:14.949Z,56.30
2022-12-31T01:56:42.238Z,56.30
2022-12-31T01:59:15.343Z,56.30
2022-12-31T02:01:42.455Z,56.30
2022-12-31T02:04:09.884Z,56.30
2022-12-31T02:06:44.323Z,56.30
2022-12-31T02:09:11.160Z,56.30
2022-12-31T02:11:43.866Z,56.20
2022-12-31T02:14:15.064Z,56.20
2022-12-31T02:16:54.038Z,56.20
2022-12-31T02:19:46.493Z,56.20
2022-12-31T02:22:13.201Z,56.20
2022-12-31T02:24:57.083Z,56.10
2022-12-31T02:27:23.967Z,56.20
2022-12-31T02:29:51.426Z,56.20
2022-12-31T02:32:36.544Z,56.20
2022-12-31T02:35:05.688Z,56.10
2022-12-31T02:37:32.365Z,56.20
2022-12-31T02:39:59.018Z,56.00
2022-12-31T02:42:25.727Z,56.10
2022-12-31T02:44:52.427Z,56.10
2022-12-31T02:47:32.063Z,56.00
2022-12-31T02:50:14.871Z,56.00
2022-12-31T02:52:50.797Z,56.10
2022-12-31T02:55:36.276Z,56.10
2022-12-31T02:58:08.984Z,56.10
2022-12-31T03:00:55.033Z,56.20
2022-12-31T03:03:21.774Z,56.10
2022-12-31T03:05:48.436Z,56.10
2022-12-31T03:08:24.806Z,56.20
2022-12-31T03:10:51.698Z,56.20
2022-12-31T03:13:18.346Z,56.10
2022-12-31T03:15:45.202Z,56.10
2022-12-31T03:18:12.850Z,56.10
2022-12-31T03:21:01.311Z,56.10
2022-12-31T03:23:29.173Z,56.10
2022-12-31T03:26:02.151Z,56.10
2022-12-31T03:28:29.674Z,56.10
2022-12-31T03:30:57.612Z,56.70
2022-12-31T03:33:24.453Z,56.00
2022-12-31T03:35:51.235Z,56.00
2022-12-31T03:38:18.158Z,56.00
2022-12-31T03:40:45.730Z,56.00
2022-12-31T03:43:12.403Z,56.00
2022-12-31T03:45:39.296Z,55.90
2022-12-31T03:48:06.585Z,56.00
2022-12-31T03:50:33.291Z,56.00
2022-12-31T03:53:00.031Z,56.00
2022-12-31T03:55:26.718Z,56.00
2022-12-31T03:57:53.480Z,56.00
2022-12-31T04:00:20.810Z,56.00
2022-12-31T04:02:47.772Z,56.00
2022-12-31T04:05:20.945Z,56.00
2022-12-31T04:07:47.853Z,56.00
2022-12-31T04:10:15.252Z,56.00
2022-12-31T04:12:42.254Z,55.90
2022-12-31T04:15:09.186Z,56.00
2022-12-31T04:17:35.908Z,55.90
2022-12-31T04:20:03.150Z,55.90
2022-12-31T04:22:32.978Z,55.90
2022-12-31T04:24:59.693Z,56.00
2022-12-31T04:27:26.411Z,56.00
2022-12-31T04:29:53.164Z,56.00
2022-12-31T04:32:19.805Z,55.90
2022-12-31T04:34:46.516Z,55.90
2022-12-31T04:37:13.192Z,55.90
2022-12-31T04:39:39.948Z,55.90
2022-12-31T04:42:06.647Z,55.80
2022-12-31T04:44:34.969Z,55.90
2022-12-31T04:47:01.890Z,55.80
2022-12-31T04:49:28.613Z,55.80
2022-12-31T04:51:55.375Z,55.80
2022-12-31T04:54:22.089Z,55.70
2022-12-31T04:56:49.638Z,55.70
2022-12-31T04:59:16.381Z,55.80
2022-12-31T05:01:43.173Z,55.70
2022-12-31T05:04:16.218Z,55.80
2022-12-31T05:06:42.937Z,55.80
2022-12-31T05:09:09.652Z,55.80
2022-12-31T05:11:39.421Z,55.70
2022-12-31T05:14:08.589Z,55.70
2022-12-31T05:16:35.298Z,55.80
2022-12-31T05:19:02.063Z,55.70
2022-12-31T05:21:34.786Z,55.90
2022-12-31T05:24:01.635Z,55.80
2022-12-31T05:26:34.473Z,55.80
2022-12-31T05:29:01.177Z,55.80
2022-12-31T05:31:27.886Z,55.80
2022-12-31T05:33:54.601Z,55.80
2022-12-31T05:36:21.317Z,55.70
2022-12-31T05:38:48.072Z,55.80
2022-12-31T05:41:14.763Z,55.70
2022-12-31T05:43:41.441Z,55.80
2022-12-31T05:46:08.337Z,55.90
2022-12-31T05:48:35.055Z,55.70
2022-12-31T05:51:01.921Z,55.60
2022-12-31T05:53:28.646Z,55.70
2022-12-31T05:55:55.449Z,55.70
2022-12-31T05:58:22.101Z,55.60
2022-12-31T06:00:48.815Z,55.60
2022-12-31T06:03:15.598Z,55.60
2022-12-31T06:05:42.691Z,55.50
2022-12-31T06:08:09.924Z,55.60
2022-12-31T06:10:42.790Z,55.50
2022-12-31T06:13:12.613Z,55.50
2022-12-31T06:15:39.867Z,55.50
2022-12-31T06:18:06.810Z,55.60
2022-12-31T06:20:33.736Z,55.60
2022-12-31T06:23:00.484Z,55.60
2022-12-31T06:25:34.707Z,55.50
2022-12-31T06:28:01.377Z,55.60
2022-12-31T06:30:28.112Z,55.60
2022-12-31T06:32:55.040Z,55.50
2022-12-31T06:35:21.740Z,55.60
2022-12-31T06:37:48.409Z,55.60
2022-12-31T06:40:15.160Z,55.60
2022-12-31T06:42:42.799Z,55.70
2022-12-31T06:45:09.662Z,55.90
2022-12-31T06:47:36.553Z,55.80
2022-12-31T06:50:03.335Z,55.90
2022-12-31T06:52:30.104Z,55.90
2022-12-31T06:54:56.916Z,55.90
2022-12-31T06:57:23.878Z,55.70
2022-12-31T06:59:50.712Z,55.90
2022-12-31T07:02:21.880Z,55.80
2022-12-31T07:04:48.608Z,55.80
2022-12-31T07:07:25.143Z,55.50
2022-12-31T07:09:52.979Z,55.70
2022-12-31T07:12:46.116Z,55.90
2022-12-31T07:15:24.947Z,55.90
2022-12-31T07:17:54.671Z,55.90
2022-12-31T07:20:21.594Z,55.90
2022-12-31T07:22:48.471Z,55.90
2022-12-31T07:25:16.042Z,56.00
2022-12-31T07:27:42.801Z,56.00
2022-12-31T07:30:16.473Z,56.00
2022-12-31T07:32:58.422Z,55.90
2022-12-31T07:35:37.353Z,55.90
2022-12-31T07:38:16.332Z,55.60
2022-12-31T07:41:07.457Z,55.90
2022-12-31T07:43:38.985Z,55.90
2022-12-31T07:46:25.926Z,56.00
2022-12-31T07:48:52.799Z,56.00
2022-12-31T07:51:19.662Z,56.00
2022-12-31T07:53:46.928Z,56.00
2022-12-31T07:56:16.717Z,56.00
2022-12-31T07:59:20.947Z,56.00
2022-12-31T08:01:52.255Z,56.00
2022-12-31T08:04:48.742Z,56.00
2022-12-31T08:07:23.590Z,56.00
2022-12-31T08:09:54.031Z,56.00
2022-12-31T08:12:20.811Z,56.00
2022-12-31T08:14:47.843Z,56.00
2022-12-31T08:17:15.565Z,56.00
2022-12-31T08:19:42.469Z,56.00
2022-12-31T08:22:18.304Z,56.00
2022-12-31T08:24:54.071Z,56.00
2022-12-31T08:27:32.983Z,56.00
2022-12-31T08:30:07.755Z,56.00
2022-12-31T08:32:34.497Z,56.00
2022-12-31T08:35:04.011Z,56.00
2022-12-31T08:37:30.743Z,55.90
2022-12-31T08:40:00.503Z,56.00
2022-12-31T08:42:45.411Z,56.00
2022-12-31T08:45:20.243Z,56.00
2022-12-31T08:47:58.029Z,56.10
2022-12-31T08:50:27.122Z,56.10
2022-12-31T08:52:54.084Z,56.10
2022-12-31T08:55:21.149Z,56.10
2022-12-31T08:57:53.992Z,56.20
2022-12-31T09:00:20.943Z,56.20
2022-12-31T09:02:48.562Z,56.20
2022-12-31T09:05:15.229Z,56.20
2022-12-31T09:07:47.637Z,56.30
2022-12-31T09:10:17.602Z,56.30
2022-12-31T09:13:02.579Z,56.30
2022-12-31T09:15:38.502Z,56.50
2022-12-31T09:18:05.333Z,55.70
2022-12-31T09:20:42.878Z,56.30
2022-12-31T09:23:10.508Z,56.60
2022-12-31T09:25:38.832Z,56.60
2022-12-31T09:28:14.195Z,56.50
2022-12-31T09:30:50.043Z,56.60
2022-12-31T09:33:28.692Z,56.40
2022-12-31T09:35:56.714Z,56.50
2022-12-31T09:38:36.572Z,56.50
2022-12-31T09:41:13.679Z,56.60
2022-12-31T09:43:40.322Z,56.70
2022-12-31T09:46:07.123Z,56.70
2022-12-31T09:48:42.925Z,56.70
2022-12-31T09:51:23.361Z,56.70
2022-12-31T09:53:51.827Z,56.60
2022-12-31T09:56:39.894Z,56.70
2022-12-31T09:59:11.113Z,56.60
2022-12-31T10:01:37.967Z,56.60
2022-12-31T10:04:12.896Z,56.80
2022-12-31T10:06:39.573Z,56.70
2022-12-31T10:09:09.305Z,56.80
2022-12-31T10:11:38.970Z,56.80
2022-12-31T10:14:22.167Z,56.70
2022-12-31T10:17:01.262Z,56.90
2022-12-31T10:19:31.042Z,56.90
2022-12-31T10:22:18.025Z,57.00
2022-12-31T10:24:44.677Z,57.00
2022-12-31T10:27:21.313Z,56.80
2022-12-31T10:29:48.891Z,57.00
2022-12-31T10:32:31.241Z,57.10
2022-12-31T10:35:10.434Z,57.00
2022-12-31T10:37:43.169Z,57.10
2022-12-31T10:40:36.160Z,56.90
2022-12-31T10:43:05.914Z,57.10
2022-12-31T10:45:45.003Z,56.80
2022-12-31T10:48:30.566Z,57.10
2022-12-31T10:51:06.517Z,57.10
2022-12-31T10:53:39.406Z,57.10
2022-12-31T10:56:15.275Z,57.10
2022-12-31T10:58:47.961Z,57.00
2022-12-31T11:01:19.126Z,57.00
2022-12-31T11:03:52.011Z,57.00
2022-12-31T11:06:37.505Z,57.00
2022-12-31T11:09:10.206Z,57.00
2022-12-31T11:11:49.106Z,56.80
2022-12-31T11:14:16.256Z,57.00
2022-12-31T11:16:45.958Z,56.90
2022-12-31T11:19:18.714Z,56.90
2022-12-31T11:21:48.598Z,56.80
2022-12-31T11:24:18.720Z,57.00
2022-12-31T11:26:45.377Z,56.90
2022-12-31T11:29:15.067Z,56.90
2022-12-31T11:31:58.407Z,57.00
2022-12-31T11:34:29.295Z,56.90
2022-12-31T11:37:14.917Z,56.90
2022-12-31T11:40:00.558Z,56.90
2022-12-31T11:42:33.525Z,56.90
2022-12-31T11:45:03.272Z,57.00
2022-12-31T11:48:27.936Z,57.00
2022-12-31T11:50:50.978Z,56.90
2022-12-31T11:53:23.978Z,57.00
2022-12-31T11:56:09.176Z,57.00
2022-12-31T11:58:35.872Z,57.10
2022-12-31T12:01:08.852Z,57.10
2022-12-31T12:03:39.727Z,56.90
2022-12-31T12:06:07.663Z,56.50
2022-12-31T12:08:34.375Z,57.30
2022-12-31T12:11:03.545Z,57.00
2022-12-31T12:13:30.264Z,57.20
2022-12-31T12:15:58.293Z,57.30
2022-12-31T12:18:26.575Z,57.20
2022-12-31T12:20:53.215Z,57.20
2022-12-31T12:23:24.462Z,57.30
2022-12-31T12:25:51.182Z,57.30
2022-12-31T12:28:22.058Z,57.30
2022-12-31T12:31:22.800Z,57.30
2022-12-31T12:33:50.091Z,57.30
2022-12-31T12:36:17.419Z,57.20
2022-12-31T12:38:45.161Z,57.40
2022-12-31T12:41:14.611Z,57.40
2022-12-31T12:43:41.340Z,57.40
2022-12-31T12:46:17.216Z,57.40
2022-12-31T12:48:44.947Z,57.40
2022-12-31T12:51:30.358Z,57.40
2022-12-31T12:54:07.223Z,57.50
2022-12-31T12:56:40.048Z,57.40
2022-12-31T12:59:09.907Z,57.50
2022-12-31T13:01:43.226Z,57.60
2022-12-31T13:07:06.974Z,57.60
2022-12-31T13:09:36.805Z,57.50
2022-12-31T13:12:24.874Z,57.60
2022-12-31T13:15:06.837Z,57.60
2022-12-31T13:17:56.068Z,57.40
2022-12-31T13:20:30.748Z,57.50
2022-12-31T13:23:16.211Z,57.40
2022-12-31T13:25:52.020Z,57.40
2022-12-31T13:28:18.729Z,57.40
2022-12-31T13:30:52.757Z,57.40
2022-12-31T13:33:20.588Z,57.40
2022-12-31T13:35:57.490Z,57.40
2022-12-31T13:38:28.552Z,57.40
2022-12-31T13:40:58.309Z,57.30
2022-12-31T13:43:27.932Z,57.40
2022-12-31T13:45:59.068Z,57.40
2022-12-31T13:48:36.171Z,57.40
2022-12-31T13:51:21.672Z,57.50
2022-12-31T13:53:48.327Z,57.30
2022-12-31T13:56:16.768Z,57.00
2022-12-31T13:58:48.629Z,56.50
2022-12-31T14:01:19.543Z,56.50
2022-12-31T14:03:46.333Z,57.20
2022-12-31T14:06:22.819Z,57.20
2022-12-31T14:08:49.477Z,57.40
2022-12-31T14:11:30.613Z,56.80
2022-12-31T14:14:22.541Z,57.40
2022-12-31T14:16:51.883Z,57.40
2022-12-31T14:19:18.824Z,57.60
2022-12-31T14:21:57.283Z,57.20
2022-12-31T14:24:42.715Z,57.80
2022-12-31T14:27:11.186Z,57.60
2022-12-31T14:29:52.151Z,57.50
2022-12-31T14:32:31.177Z,57.40
2022-12-31T14:34:57.816Z,57.00
2022-12-31T14:37:27.987Z,56.70
2022-12-31T14:40:13.463Z,56.40
2022-12-31T14:42:55.989Z,56.40
2022-12-31T14:45:39.352Z,56.00
2022-12-31T14:48:20.081Z,56.00
2022-12-31T14:50:48.520Z,56.50
2022-12-31T14:53:18.513Z,56.70
2022-12-31T14:55:45.215Z,56.40
2022-12-31T14:58:38.298Z,56.50
2022-12-31T15:01:26.396Z,56.80
2022-12-31T15:03:55.637Z,57.00
2022-12-31T15:06:32.864Z,57.40
2022-12-31T15:09:12.199Z,57.60
2022-12-31T15:11:57.662Z,57.60
2022-12-31T15:14:37.462Z,57.70
2022-12-31T15:17:07.728Z,57.90
2022-12-31T15:19:37.489Z,57.80
2022-12-31T15:22:06.899Z,58.20
2022-12-31T15:24:33.562Z,58.10
2022-12-31T15:27:04.281Z,58.40
2022-12-31T15:29:34.782Z,58.40
2022-12-31T15:32:03.072Z,58.20
2022-12-31T15:34:31.005Z,58.40
2022-12-31T15:36:58.458Z,58.40
2022-12-31T15:39:26.885Z,58.40
2022-12-31T15:42:36.323Z,58.40
2022-12-31T15:44:51.378Z,58.40
2022-12-31T15:47:38.613Z,58.40
2022-12-31T15:50:06.666Z,58.40
2022-12-31T15:52:39.958Z,58.40
2022-12-31T15:55:06.896Z,58.40
2022-12-31T15:57:34.740Z,58.30
2022-12-31T16:00:02.441Z,58.30
2022-12-31T16:02:29.364Z,58.40
2022-12-31T16:05:02.236Z,58.40
2022-12-31T16:07:29.017Z,58.40
2022-12-31T16:09:56.687Z,58.50
2022-12-31T16:12:27.856Z,58.50
2022-12-31T16:15:05.802Z,58.50
2022-12-31T16:17:33.275Z,58.60
2022-12-31T16:20:00.665Z,58.70
2022-12-31T16:22:49.849Z,58.80
2022-12-31T16:25:30.609Z,58.30
2022-12-31T16:27:58.545Z,58.40
2022-12-31T16:30:26.428Z,58.80
2022-12-31T16:32:53.871Z,58.90
2022-12-31T16:35:27.729Z,59.00
2022-12-31T16:38:24.661Z,59.60
2022-12-31T16:41:11.701Z,58.30
2022-12-31T16:43:39.234Z,58.90
2022-12-31T16:46:15.138Z,58.80
2022-12-31T16:48:45.165Z,58.80
2022-12-31T16:51:18.791Z,58.90
2022-12-31T16:53:45.574Z,59.00
2022-12-31T16:56:15.409Z,58.80
2022-12-31T16:58:45.187Z,58.90
2022-12-31T17:01:18.506Z,58.90
2022-12-31T17:03:45.929Z,58.80
2022-12-31T17:06:14.087Z,58.90
2022-12-31T17:08:43.900Z,58.80
2022-12-31T17:11:24.020Z,58.70
2022-12-31T17:13:54.661Z,58.60
2022-12-31T17:16:24.758Z,58.50
2022-12-31T17:18:51.483Z,58.40
2022-12-31T17:21:18.172Z,58.40
2022-12-31T17:23:44.896Z,58.40
2022-12-31T17:26:12.475Z,58.40
2022-12-31T17:28:49.114Z,58.30
2022-12-31T17:31:25.176Z,58.40
2022-12-31T17:33:55.239Z,58.30
2022-12-31T17:36:25.155Z,58.20
2022-12-31T17:38:51.877Z,58.30
2022-12-31T17:41:25.561Z,58.50
2022-12-31T17:43:55.463Z,58.30
2022-12-31T17:46:22.463Z,58.30
2022-12-31T17:48:59.546Z,58.40
2022-12-31T17:51:26.248Z,58.40
2022-12-31T17:53:52.996Z,58.60
2022-12-31T17:56:19.775Z,58.60
2022-12-31T17:58:47.901Z,58.60
2022-12-31T18:01:18.504Z,58.80
2022-12-31T18:03:45.428Z,58.70
2022-12-31T18:06:16.544Z,59.00
2022-12-31T18:08:44.019Z,58.90
2022-12-31T18:11:20.895Z,59.00
2022-12-31T18:13:47.745Z,59.00
2022-12-31T18:16:15.385Z,59.00
2022-12-31T18:18:42.395Z,59.10
2022-12-31T18:21:13.434Z,59.10
2022-12-31T18:23:46.680Z,59.10
2022-12-31T18:26:14.538Z,59.20
2022-12-31T18:28:44.550Z,59.20
2022-12-31T18:31:18.944Z,59.20
2022-12-31T18:33:46.929Z,59.10
2022-12-31T18:36:13.993Z,59.00
2022-12-31T18:38:40.817Z,59.30
2022-12-31T18:41:19.204Z,58.60
2022-12-31T18:43:45.962Z,58.10
2022-12-31T18:46:13.500Z,57.80
2022-12-31T18:48:43.703Z,57.50
2022-12-31T18:51:14.175Z,57.30
2022-12-31T18:53:40.934Z,57.30
2022-12-31T18:56:10.241Z,57.40
2022-12-31T18:58:36.907Z,56.30
2022-12-31T19:01:03.720Z,57.50
2022-12-31T19:03:30.712Z,58.00
2022-12-31T19:05:57.499Z,58.00
2022-12-31T19:08:24.283Z,58.60
2022-12-31T19:10:51.895Z,58.60
2022-12-31T19:13:18.911Z,58.60
2022-12-31T19:15:49.616Z,58.60
2022-12-31T19:18:22.527Z,58.60
2022-12-31T19:20:49.344Z,58.60
2022-12-31T19:23:17.835Z,58.60
2022-12-31T19:25:44.766Z,58.50
2022-12-31T19:28:15.443Z,58.50
2022-12-31T19:30:42.284Z,58.50
2022-12-31T19:33:09.185Z,58.50
2022-12-31T19:35:35.871Z,58.50
2022-12-31T19:38:02.617Z,58.50
2022-12-31T19:40:30.052Z,58.50
2022-12-31T19:42:56.952Z,58.50
2022-12-31T19:45:24.241Z,58.70
2022-12-31T19:47:51.244Z,58.90
2022-12-31T19:50:25.098Z,59.00
2022-12-31T19:52:52.409Z,59.20
2022-12-31T19:55:19.541Z,59.30
2022-12-31T19:57:46.751Z,59.40
2022-12-31T20:00:16.516Z,59.40
2022-12-31T20:02:43.878Z,59.40
2022-12-31T20:05:11.014Z,59.70
2022-12-31T20:07:37.712Z,59.80
2022-12-31T20:10:04.940Z,59.80
2022-12-31T20:12:31.701Z,59.80
2022-12-31T20:14:58.383Z,60.00
2022-12-31T20:17:25.122Z,59.90
2022-12-31T20:19:57.807Z,59.90
2022-12-31T20:22:24.495Z,60.00
2022-12-31T20:24:51.171Z,59.90
2022-12-31T20:27:18.714Z,59.90
2022-12-31T20:29:45.737Z,60.00
2022-12-31T20:32:12.496Z,59.90
2022-12-31T20:34:39.253Z,60.10
2022-12-31T20:37:07.162Z,60.00
2022-12-31T20:39:33.851Z,60.10
2022-12-31T20:42:00.569Z,60.00
2022-12-31T20:44:27.237Z,60.00
2022-12-31T20:46:53.992Z,60.10
2022-12-31T20:49:37.263Z,60.10
2022-12-31T20:52:07.563Z,60.10
2022-12-31T20:54:34.359Z,60.20
2022-12-31T20:57:01.030Z,60.10
2022-12-31T20:59:27.757Z,61.10
2022-12-31T21:04:47.644Z,60.20
2022-12-31T21:07:14.398Z,60.10
2022-12-31T21:09:41.140Z,59.90
2022-12-31T21:12:27.428Z,59.90
2022-12-31T21:14:54.087Z,59.80
2022-12-31T21:17:20.784Z,59.80
2022-12-31T21:19:47.453Z,59.80
2022-12-31T21:22:14.182Z,59.60
2022-12-31T21:24:40.886Z,59.60
2022-12-31T21:27:07.560Z,59.50
2022-12-31T21:29:34.921Z,59.50
2022-12-31T21:32:03.726Z,59.40
2022-12-31T21:34:30.386Z,59.40
2022-12-31T21:36:57.072Z,59.40
2022-12-31T21:39:23.791Z,59.30
2022-12-31T21:41:53.549Z,59.20
2022-12-31T21:44:26.583Z,59.20
2022-12-31T21:47:34.927Z,59.10
2022-12-31T21:50:03.013Z,59.00
2022-12-31T21:52:35.068Z,59.00
2022-12-31T21:55:21.001Z,59.00
2022-12-31T21:58:24.099Z,58.80
2022-12-31T22:00:53.459Z,58.80
2022-12-31T22:03:29.162Z,58.80
2022-12-31T22:06:16.273Z,58.80
2022-12-31T22:08:46.529Z,58.70
2022-12-31T22:11:13.269Z,58.70
2022-12-31T22:13:40.171Z,58.70
2022-12-31T22:16:07.410Z,58.60
2022-12-31T22:18:35.654Z,59.20
2022-12-31T22:21:03.581Z,58.60
2022-12-31T22:23:30.592Z,59.30
2022-12-31T22:25:57.299Z,58.50
2022-12-31T22:28:40.175Z,58.50
2022-12-31T22:31:17.683Z,58.50
2022-12-31T22:33:44.442Z,58.40
2022-12-31T22:36:11.997Z,58.50
2022-12-31T22:38:38.695Z,58.40
2022-12-31T22:41:09.575Z,58.40
2022-12-31T22:43:37.199Z,58.40
2022-12-31T22:46:10.756Z,58.40
2022-12-31T22:48:37.838Z,58.40
2022-12-31T22:51:04.703Z,58.40
2022-12-31T22:53:31.626Z,58.30
2022-12-31T22:55:58.336Z,58.30
2022-12-31T22:58:25.389Z,58.30
2022-12-31T23:00:52.217Z,58.30
2022-12-31T23:03:19.084Z,58.30
2022-12-31T23:05:47.204Z,58.30
2022-12-31T23:08:22.375Z,58.30
2022-12-31T23:10:59.709Z,58.30
2022-12-31T23:13:55.372Z,58.30
2022-12-31T23:16:43.423Z,58.30
2022-12-31T23:19:28.670Z,58.30
2022-12-31T23:22:13.999Z,58.30
2022-12-31T23:24:40.744Z,58.30
2022-12-31T23:27:07.520Z,58.20
2022-12-31T23:29:34.158Z,58.30
2022-12-31T23:32:00.806Z,58.20
2022-12-31T23:34:27.519Z,58.20
2022-12-31T23:36:54.332Z,58.20
2022-12-31T23:39:20.962Z,58.20
2022-12-31T23:41:47.593Z,58.20
2022-12-31T23:44:17.389Z,58.20
2022-12-31T23:46:44.775Z,58.20
2022-12-31T23:49:11.955Z,58.20
2022-12-31T23:51:40.184Z,58.20
2022-12-31T23:54:10.032Z,58.20
2022-12-31T23:56:36.742Z,58.00
2022-12-31T23:59:03.466Z,58.00
